sensor_id;sensor_type;location;lat;lon;timestamp;pressure;altitude;pressure_sealevel;temperature;humidity
9257;BME280;4665;51.368;6.782;2022-07-23T00:02:05;101483.78;;;17.20;100.00
9257;BME280;4665;51.368;6.782;2022-07-23T00:04:32;101479.75;;;17.16;100.00
9257;BME280;4665;51.368;6.782;2022-07-23T00:06:57;101483.81;;;17.12;100.00
9257;BME280;4665;51.368;6.782;2022-07-23T00:09:22;101482.34;;;17.10;100.00
9257;BME280;4665;51.368;6.782;2022-07-23T00:11:48;101480.84;;;17.07;100.00
9257;BME280;4665;51.368;6.782;2022-07-23T00:14:13;101481.56;;;17.01;100.00
9257;BME280;4665;51.368;6.782;2022-07-23T00:16:39;101495.38;;;16.98;100.00
9257;BME280;4665;51.368;6.782;2022-07-23T00:19:04;101457.56;;;16.91;100.00
9257;BME280;4665;51.368;6.782;2022-07-23T00:21:29;101474.78;;;17.05;100.00
9257;BME280;4665;51.368;6.782;2022-07-23T00:23:55;101463.91;;;16.98;100.00
9257;BME280;4665;51.368;6.782;2022-07-23T00:26:20;101461.59;;;16.95;100.00
9257;BME280;4665;51.368;6.782;2022-07-23T00:28:46;101469.13;;;17.00;100.00
9257;BME280;4665;51.368;6.782;2022-07-23T00:31:11;101465.78;;;16.98;100.00
9257;BME280;4665;51.368;6.782;2022-07-23T00:33:36;101461.59;;;16.95;100.00
9257;BME280;4665;51.368;6.782;2022-07-23T00:36:02;101472.19;;;16.97;100.00
9257;BME280;4665;51.368;6.782;2022-07-23T00:38:27;101454.06;;;16.91;100.00
9257;BME280;4665;51.368;6.782;2022-07-23T00:40:53;101467.13;;;16.94;100.00
9257;BME280;4665;51.368;6.782;2022-07-23T00:43:20;101471.69;;;16.93;100.00
9257;BME280;4665;51.368;6.782;2022-07-23T00:45:46;101470.19;;;16.91;100.00
9257;BME280;4665;51.368;6.782;2022-07-23T00:48:12;101463.03;;;16.83;100.00
9257;BME280;4665;51.368;6.782;2022-07-23T00:50:37;101482.63;;;16.92;100.00
9257;BME280;4665;51.368;6.782;2022-07-23T00:53:03;101468.53;;;16.90;100.00
9257;BME280;4665;51.368;6.782;2022-07-23T00:55:29;101467.22;;;16.86;100.00
9257;BME280;4665;51.368;6.782;2022-07-23T00:57:55;101481.88;;;16.83;100.00
9257;BME280;4665;51.368;6.782;2022-07-23T01:00:21;101486.44;;;16.74;100.00
9257;BME280;4665;51.368;6.782;2022-07-23T01:02:46;101482.59;;;16.69;100.00
9257;BME280;4665;51.368;6.782;2022-07-23T01:05:12;101471.28;;;16.50;100.00
9257;BME280;4665;51.368;6.782;2022-07-23T01:07:38;101472.78;;;16.53;100.00
9257;BME280;4665;51.368;6.782;2022-07-23T01:10:05;101491.50;;;16.69;100.00
9257;BME280;4665;51.368;6.782;2022-07-23T01:12:50;101491.50;;;16.69;100.00
9257;BME280;4665;51.368;6.782;2022-07-23T01:15:15;101485.63;;;16.66;100.00
9257;BME280;4665;51.368;6.782;2022-07-23T01:17:41;101474.22;;;16.63;100.00
9257;BME280;4665;51.368;6.782;2022-07-23T01:20:07;101480.75;;;16.69;100.00
9257;BME280;4665;51.368;6.782;2022-07-23T01:22:32;101483.16;;;16.64;100.00
9257;BME280;4665;51.368;6.782;2022-07-23T01:24:57;101479.25;;;16.67;100.00
9257;BME280;4665;51.368;6.782;2022-07-23T01:27:23;101473.25;;;16.56;100.00
9257;BME280;4665;51.368;6.782;2022-07-23T01:29:48;101484.81;;;16.65;100.00
9257;BME280;4665;51.368;6.782;2022-07-23T01:32:14;101477.09;;;16.62;100.00
9257;BME280;4665;51.368;6.782;2022-07-23T01:34:39;101486.13;;;16.69;100.00
9257;BME280;4665;51.368;6.782;2022-07-23T01:37:05;101478.41;;;16.66;100.00
9257;BME280;4665;51.368;6.782;2022-07-23T01:39:31;101471.22;;;16.58;100.00
9257;BME280;4665;51.368;6.782;2022-07-23T01:41:56;101475.28;;;16.54;100.00
9257;BME280;4665;51.368;6.782;2022-07-23T01:44:22;101480.63;;;16.62;100.00
9257;BME280;4665;51.368;6.782;2022-07-23T01:46:47;101474.75;;;16.59;100.00
9257;BME280;4665;51.368;6.782;2022-07-23T01:49:12;101474.22;;;16.63;100.00
9257;BME280;4665;51.368;6.782;2022-07-23T01:51:38;101480.97;;;16.59;100.00
9257;BME280;4665;51.368;6.782;2022-07-23T01:54:23;101473.53;;;16.61;100.00
9257;BME280;4665;51.368;6.782;2022-07-23T01:56:49;101463.97;;;16.59;100.00
9257;BME280;4665;51.368;6.782;2022-07-23T01:59:14;101469.38;;;16.59;100.00
9257;BME280;4665;51.368;6.782;2022-07-23T02:01:39;101474.75;;;16.59;100.00
9257;BME280;4665;51.368;6.782;2022-07-23T02:04:05;101478.75;;;16.63;100.00
9257;BME280;4665;51.368;6.782;2022-07-23T02:06:30;101467.53;;;16.59;100.00
9257;BME280;4665;51.368;6.782;2022-07-23T02:08:55;101472.06;;;16.59;100.00
9257;BME280;4665;51.368;6.782;2022-07-23T02:11:21;101464.66;;;16.61;100.00
9257;BME280;4665;51.368;6.782;2022-07-23T02:13:46;101466.22;;;16.55;100.00
9257;BME280;4665;51.368;6.782;2022-07-23T02:16:11;101467.94;;;16.48;100.00
9257;BME280;4665;51.368;6.782;2022-07-23T02:18:37;101465.09;;;16.41;100.00
9257;BME280;4665;51.368;6.782;2022-07-23T02:21:02;101463.78;;;16.37;100.00
9257;BME280;4665;51.368;6.782;2022-07-23T02:23:28;101462.44;;;16.33;100.00
9257;BME280;4665;51.368;6.782;2022-07-23T02:25:54;101463.31;;;16.34;100.00
9257;BME280;4665;51.368;6.782;2022-07-23T02:28:19;101458.09;;;16.32;100.00
9257;BME280;4665;51.368;6.782;2022-07-23T02:30:44;101469.16;;;16.37;100.00
9257;BME280;4665;51.368;6.782;2022-07-23T02:33:10;101464.66;;;16.30;100.00
9257;BME280;4665;51.368;6.782;2022-07-23T02:35:35;101459.44;;;16.28;100.00
9257;BME280;4665;51.368;6.782;2022-07-23T02:38:01;101465.34;;;16.24;100.00
9257;BME280;4665;51.368;6.782;2022-07-23T02:40:26;101456.81;;;16.20;100.00
9257;BME280;4665;51.368;6.782;2022-07-23T02:42:52;101459.31;;;16.22;100.00
9257;BME280;4665;51.368;6.782;2022-07-23T02:45:17;101459.50;;;16.20;100.00
9257;BME280;4665;51.368;6.782;2022-07-23T02:47:42;101461.84;;;16.23;100.00
9257;BME280;4665;51.368;6.782;2022-07-23T02:50:08;101461.84;;;16.23;100.00
9257;BME280;4665;51.368;6.782;2022-07-23T02:52:34;101462.53;;;16.17;100.00
9257;BME280;4665;51.368;6.782;2022-07-23T02:54:59;101459.38;;;16.13;100.00
9257;BME280;4665;51.368;6.782;2022-07-23T02:57:24;101462.28;;;16.04;100.00
9257;BME280;4665;51.368;6.782;2022-07-23T02:59:50;101464.75;;;16.05;100.00
9257;BME280;4665;51.368;6.782;2022-07-23T03:02:15;101457.41;;;15.99;100.00
9257;BME280;4665;51.368;6.782;2022-07-23T03:04:41;101466.78;;;16.03;100.00
9257;BME280;4665;51.368;6.782;2022-07-23T03:07:07;101467.66;;;16.04;100.00
9257;BME280;4665;51.368;6.782;2022-07-23T03:09:33;101457.72;;;16.04;100.00
9257;BME280;4665;51.368;6.782;2022-07-23T03:11:58;101461.25;;;15.96;100.00
9257;BME280;4665;51.368;6.782;2022-07-23T03:14:23;101457.28;;;15.92;100.00
9257;BME280;4665;51.368;6.782;2022-07-23T03:16:49;101450.03;;;15.93;100.00
9257;BME280;4665;51.368;6.782;2022-07-23T03:19:15;101445.03;;;15.82;100.00
9257;BME280;4665;51.368;6.782;2022-07-23T03:21:40;101451.44;;;15.81;100.00
9257;BME280;4665;51.368;6.782;2022-07-23T03:24:09;101463.47;;;15.85;100.00
9257;BME280;4665;51.368;6.782;2022-07-23T03:26:35;101465.50;;;15.83;100.00
9257;BME280;4665;51.368;6.782;2022-07-23T03:29:01;101463.34;;;15.78;100.00
9257;BME280;4665;51.368;6.782;2022-07-23T03:31:29;101464.00;;;15.80;100.00
9257;BME280;4665;51.368;6.782;2022-07-23T03:33:55;101461.50;;;15.70;100.00
9257;BME280;4665;51.368;6.782;2022-07-23T03:36:20;101466.88;;;15.78;100.00
9257;BME280;4665;51.368;6.782;2022-07-23T03:38:46;101464.00;;;15.80;100.00
9257;BME280;4665;51.368;6.782;2022-07-23T03:41:11;101462.66;;;15.84;100.00
9257;BME280;4665;51.368;6.782;2022-07-23T03:43:36;101459.97;;;15.84;100.00
9257;BME280;4665;51.368;6.782;2022-07-23T03:46:02;101468.69;;;15.86;100.00
9257;BME280;4665;51.368;6.782;2022-07-23T03:48:27;101471.38;;;15.86;100.00
9257;BME280;4665;51.368;6.782;2022-07-23T03:50:53;101470.72;;;15.84;100.00
9257;BME280;4665;51.368;6.782;2022-07-23T03:53:18;101470.19;;;15.89;100.00
9257;BME280;4665;51.368;6.782;2022-07-23T03:55:43;101466.38;;;15.83;100.00
9257;BME280;4665;51.368;6.782;2022-07-23T03:58:09;101468.84;;;15.85;100.00
9257;BME280;4665;51.368;6.782;2022-07-23T04:00:34;101471.38;;;15.86;100.00
9257;BME280;4665;51.368;6.782;2022-07-23T04:03:00;101467.88;;;15.86;100.00
9257;BME280;4665;51.368;6.782;2022-07-23T04:05:25;101477.78;;;15.85;100.00
9257;BME280;4665;51.368;6.782;2022-07-23T04:07:50;101479.13;;;15.81;100.00
9257;BME280;4665;51.368;6.782;2022-07-23T04:10:16;101474.44;;;15.75;100.00
9257;BME280;4665;51.368;6.782;2022-07-23T04:12:41;101477.78;;;15.77;100.00
9257;BME280;4665;51.368;6.782;2022-07-23T04:15:07;101479.81;;;15.75;100.00
9257;BME280;4665;51.368;6.782;2022-07-23T04:17:33;101483.47;;;15.66;100.00
9257;BME280;4665;51.368;6.782;2022-07-23T04:19:59;101478.16;;;15.57;100.00
9257;BME280;4665;51.368;6.782;2022-07-23T04:22:24;101490.91;;;15.55;100.00
9257;BME280;4665;51.368;6.782;2022-07-23T04:24:50;101486.72;;;15.53;100.00
9257;BME280;4665;51.368;6.782;2022-07-23T04:27:15;101500.63;;;15.56;100.00
9257;BME280;4665;51.368;6.782;2022-07-23T04:29:41;101489.56;;;15.51;100.00
9257;BME280;4665;51.368;6.782;2022-07-23T04:32:06;101491.06;;;15.54;100.00
9257;BME280;4665;51.368;6.782;2022-07-23T04:34:32;101487.88;;;15.50;100.00
9257;BME280;4665;51.368;6.782;2022-07-23T04:36:57;101485.19;;;15.42;100.00
9257;BME280;4665;51.368;6.782;2022-07-23T04:39:23;101494.59;;;15.46;100.00
9257;BME280;4665;51.368;6.782;2022-07-23T04:41:48;101490.41;;;15.35;100.00
9257;BME280;4665;51.368;6.782;2022-07-23T04:44:14;101500.28;;;15.43;100.00
9257;BME280;4665;51.368;6.782;2022-07-23T04:46:39;101505.66;;;15.43;100.00
9257;BME280;4665;51.368;6.782;2022-07-23T04:49:05;101501.97;;;15.44;100.00
9257;BME280;4665;51.368;6.782;2022-07-23T04:51:30;101504.31;;;15.47;100.00
9257;BME280;4665;51.368;6.782;2022-07-23T04:53:56;101499.66;;;15.41;100.00
9257;BME280;4665;51.368;6.782;2022-07-23T04:56:21;101504.16;;;15.41;100.00
9257;BME280;4665;51.368;6.782;2022-07-23T04:58:47;101509.69;;;15.47;100.00
9257;BME280;4665;51.368;6.782;2022-07-23T05:01:12;101509.69;;;15.47;100.00
9257;BME280;4665;51.368;6.782;2022-07-23T05:03:38;101514.75;;;15.50;100.00
9257;BME280;4665;51.368;6.782;2022-07-23T05:06:03;101521.44;;;15.54;100.00
9257;BME280;4665;51.368;6.782;2022-07-23T05:08:29;101522.94;;;15.57;100.00
9257;BME280;4665;51.368;6.782;2022-07-23T05:10:54;101521.94;;;15.58;100.00
9257;BME280;4665;51.368;6.782;2022-07-23T05:13:20;101517.75;;;15.55;100.00
9257;BME280;4665;51.368;6.782;2022-07-23T05:15:46;101515.38;;;15.52;100.00
9257;BME280;4665;51.368;6.782;2022-07-23T05:18:12;101530.16;;;15.56;100.00
9257;BME280;4665;51.368;6.782;2022-07-23T05:20:38;101520.91;;;15.59;100.00
9257;BME280;4665;51.368;6.782;2022-07-23T05:23:03;101529.84;;;15.60;100.00
9257;BME280;4665;51.368;6.782;2022-07-23T05:25:29;101512.06;;;15.50;100.00
9257;BME280;4665;51.368;6.782;2022-07-23T05:27:55;101519.59;;;15.47;100.00
9257;BME280;4665;51.368;6.782;2022-07-23T05:30:20;101540.59;;;15.60;100.00
9257;BME280;4665;51.368;6.782;2022-07-23T05:32:46;101542.09;;;15.62;100.00
9257;BME280;4665;51.368;6.782;2022-07-23T05:35:12;101538.88;;;15.58;100.00
9257;BME280;4665;51.368;6.782;2022-07-23T05:37:37;101540.22;;;15.63;100.00
9257;BME280;4665;51.368;6.782;2022-07-23T05:40:07;101551.81;;;15.63;100.00
9257;BME280;4665;51.368;6.782;2022-07-23T05:42:36;101549.28;;;15.62;100.00
9257;BME280;4665;51.368;6.782;2022-07-23T05:45:02;101540.59;;;15.60;100.00
9257;BME280;4665;51.368;6.782;2022-07-23T05:47:28;101542.59;;;15.57;100.00
9257;BME280;4665;51.368;6.782;2022-07-23T05:49:53;101544.25;;;15.58;100.00
9257;BME280;4665;51.368;6.782;2022-07-23T05:52:19;101537.91;;;15.60;100.00
9257;BME280;4665;51.368;6.782;2022-07-23T05:54:44;101551.13;;;15.61;100.00
9257;BME280;4665;51.368;6.782;2022-07-23T05:57:10;101550.63;;;15.66;100.00
9257;BME280;4665;51.368;6.782;2022-07-23T05:59:35;101554.66;;;15.62;100.00
9257;BME280;4665;51.368;6.782;2022-07-23T06:02:00;101560.75;;;15.72;100.00
9257;BME280;4665;51.368;6.782;2022-07-23T06:04:26;101563.25;;;15.73;100.00
9257;BME280;4665;51.368;6.782;2022-07-23T06:06:51;101561.88;;;15.77;100.00
9257;BME280;4665;51.368;6.782;2022-07-23T06:09:17;101562.22;;;15.83;100.00
9257;BME280;4665;51.368;6.782;2022-07-23T06:11:43;101560.19;;;15.85;100.00
9257;BME280;4665;51.368;6.782;2022-07-23T06:14:08;101561.72;;;15.95;100.00
9257;BME280;4665;51.368;6.782;2022-07-23T06:16:34;101569.38;;;16.15;100.00
9257;BME280;4665;51.368;6.782;2022-07-23T06:18:59;101577.78;;;16.20;100.00
9257;BME280;4665;51.368;6.782;2022-07-23T06:21:25;101568.53;;;16.14;100.00
9257;BME280;4665;51.368;6.782;2022-07-23T06:23:50;101573.75;;;16.16;100.00
9257;BME280;4665;51.368;6.782;2022-07-23T06:26:15;101568.84;;;16.19;100.00
9257;BME280;4665;51.368;6.782;2022-07-23T06:28:41;101564.97;;;16.30;100.00
9257;BME280;4665;51.368;6.782;2022-07-23T06:31:06;101573.84;;;16.39;100.00
9257;BME280;4665;51.368;6.782;2022-07-23T06:33:33;101575.72;;;16.30;100.00
9257;BME280;4665;51.368;6.782;2022-07-23T06:35:59;101573.03;;;16.38;100.00
9257;BME280;4665;51.368;6.782;2022-07-23T06:38:24;101586.41;;;16.47;100.00
9257;BME280;4665;51.368;6.782;2022-07-23T06:40:50;101583.72;;;16.55;100.00
9257;BME280;4665;51.368;6.782;2022-07-23T06:43:15;101574.09;;;16.60;100.00
9257;BME280;4665;51.368;6.782;2022-07-23T06:45:41;101582.31;;;16.67;100.00
9257;BME280;4665;51.368;6.782;2022-07-23T06:48:06;101574.25;;;16.67;100.00
9257;BME280;4665;51.368;6.782;2022-07-23T06:50:32;101591.03;;;16.69;100.00
9257;BME280;4665;51.368;6.782;2022-07-23T06:52:57;101573.06;;;16.61;100.00
9257;BME280;4665;51.368;6.782;2022-07-23T06:55:22;101590.31;;;16.75;100.00
9257;BME280;4665;51.368;6.782;2022-07-23T06:57:48;101595.34;;;16.87;100.00
9257;BME280;4665;51.368;6.782;2022-07-23T07:00:13;101591.97;;;16.93;100.00
9257;BME280;4665;51.368;6.782;2022-07-23T07:02:39;101584.25;;;16.90;100.00
9257;BME280;4665;51.368;6.782;2022-07-23T07:05:04;101587.72;;;16.98;100.00
9257;BME280;4665;51.368;6.782;2022-07-23T07:07:30;101589.09;;;16.94;100.00
9257;BME280;4665;51.368;6.782;2022-07-23T07:09:55;101589.19;;;17.09;100.00
9257;BME280;4665;51.368;6.782;2022-07-23T07:12:21;101583.09;;;17.15;100.00
9257;BME280;4665;51.368;6.782;2022-07-23T07:14:46;101591.47;;;17.20;100.00
9257;BME280;4665;51.368;6.782;2022-07-23T07:17:11;101590.72;;;17.27;100.00
9257;BME280;4665;51.368;6.782;2022-07-23T07:19:37;101601.09;;;17.38;100.00
9257;BME280;4665;51.368;6.782;2022-07-23T07:22:02;101594.81;;;17.45;100.00
9257;BME280;4665;51.368;6.782;2022-07-23T07:24:28;101593.31;;;17.43;100.00
9257;BME280;4665;51.368;6.782;2022-07-23T07:26:53;101587.22;;;17.26;100.00
9257;BME280;4665;51.368;6.782;2022-07-23T07:29:19;101611.53;;;17.41;100.00
9257;BME280;4665;51.368;6.782;2022-07-23T07:31:44;101598.72;;;17.43;100.00
9257;BME280;4665;51.368;6.782;2022-07-23T07:34:10;101599.31;;;17.53;100.00
9257;BME280;4665;51.368;6.782;2022-07-23T07:36:35;101607.78;;;17.65;100.00
9257;BME280;4665;51.368;6.782;2022-07-23T07:39:03;101609.00;;;17.62;100.00
9257;BME280;4665;51.368;6.782;2022-07-23T07:41:30;101595.94;;;17.51;100.00
9257;BME280;4665;51.368;6.782;2022-07-23T07:43:56;101602.94;;;17.60;100.00
9257;BME280;4665;51.368;6.782;2022-07-23T07:46:21;101600.34;;;17.52;100.00
9257;BME280;4665;51.368;6.782;2022-07-23T07:48:51;101618.56;;;17.65;100.00
9257;BME280;4665;51.368;6.782;2022-07-23T07:51:17;101611.72;;;17.54;98.79
9257;BME280;4665;51.368;6.782;2022-07-23T07:53:42;101608.75;;;17.49;99.86
9257;BME280;4665;51.368;6.782;2022-07-23T07:56:08;101633.91;;;17.64;99.80
9257;BME280;4665;51.368;6.782;2022-07-23T07:58:33;101634.59;;;17.58;97.69
9257;BME280;4665;51.368;6.782;2022-07-23T08:00:59;101630.66;;;17.46;95.61
9257;BME280;4665;51.368;6.782;2022-07-23T08:03:25;101643.53;;;17.59;97.21
9257;BME280;4665;51.368;6.782;2022-07-23T08:05:51;101633.59;;;17.59;98.27
9257;BME280;4665;51.368;6.782;2022-07-23T08:08:16;101631.50;;;17.70;99.56
9257;BME280;4665;51.368;6.782;2022-07-23T08:10:42;101638.16;;;17.82;100.00
9257;BME280;4665;51.368;6.782;2022-07-23T08:13:12;101632.53;;;17.92;98.69
9257;BME280;4665;51.368;6.782;2022-07-23T08:15:39;101637.19;;;17.98;94.12
9257;BME280;4665;51.368;6.782;2022-07-23T08:18:04;101633.00;;;18.10;90.19
9257;BME280;4665;51.368;6.782;2022-07-23T08:20:30;101645.22;;;18.21;90.18
9257;BME280;4665;51.368;6.782;2022-07-23T08:23:02;101641.84;;;18.19;89.37
9257;BME280;4665;51.368;6.782;2022-07-23T08:25:34;101640.31;;;18.24;91.11
9257;BME280;4665;51.368;6.782;2022-07-23T08:28:02;101647.47;;;18.32;91.71
9257;BME280;4665;51.368;6.782;2022-07-23T08:30:29;101647.66;;;18.45;90.27
9257;BME280;4665;51.368;6.782;2022-07-23T08:35:31;101656.47;;;18.54;81.84
9257;BME280;4665;51.368;6.782;2022-07-23T08:37:58;101659.28;;;18.61;85.36
9257;BME280;4665;51.368;6.782;2022-07-23T08:40:29;101658.91;;;18.64;82.22
9257;BME280;4665;51.368;6.782;2022-07-23T08:42:55;101662.06;;;18.67;83.87
9257;BME280;4665;51.368;6.782;2022-07-23T08:45:22;101654.44;;;18.71;80.76
9257;BME280;4665;51.368;6.782;2022-07-23T08:47:49;101648.31;;;18.77;81.13
9257;BME280;4665;51.368;6.782;2022-07-23T08:50:15;101660.41;;;18.81;76.56
9257;BME280;4665;51.368;6.782;2022-07-23T08:52:41;101662.38;;;18.87;77.52
9257;BME280;4665;51.368;6.782;2022-07-23T08:55:07;101661.16;;;18.90;76.13
9257;BME280;4665;51.368;6.782;2022-07-23T08:57:33;101663.13;;;18.96;76.94
9257;BME280;4665;51.368;6.782;2022-07-23T08:59:59;101664.88;;;19.04;72.33
9257;BME280;4665;51.368;6.782;2022-07-23T09:02:24;101672.41;;;19.08;73.47
9257;BME280;4665;51.368;6.782;2022-07-23T09:04:50;101662.69;;;19.14;74.12
9257;BME280;4665;51.368;6.782;2022-07-23T09:07:15;101665.31;;;19.07;73.06
9257;BME280;4665;51.368;6.782;2022-07-23T09:09:41;101658.50;;;19.11;74.31
9257;BME280;4665;51.368;6.782;2022-07-23T09:12:08;101664.91;;;19.25;73.57
9257;BME280;4665;51.368;6.782;2022-07-23T09:17:13;101663.75;;;19.34;70.07
9257;BME280;4665;51.368;6.782;2022-07-23T09:19:40;101665.44;;;19.36;66.22
9257;BME280;4665;51.368;6.782;2022-07-23T09:22:19;101663.25;;;19.46;70.04
9257;BME280;4665;51.368;6.782;2022-07-23T09:25:05;101665.56;;;19.49;70.62
9257;BME280;4665;51.368;6.782;2022-07-23T09:30:27;101653.13;;;19.69;70.90
9257;BME280;4665;51.368;6.782;2022-07-23T09:33:13;101655.88;;;19.76;70.86
9257;BME280;4665;51.368;6.782;2022-07-23T09:35:51;101661.69;;;19.73;68.49
9257;BME280;4665;51.368;6.782;2022-07-23T09:38:19;101660.47;;;19.75;70.58
9257;BME280;4665;51.368;6.782;2022-07-23T09:40:46;101657.84;;;19.67;69.16
9257;BME280;4665;51.368;6.782;2022-07-23T09:43:13;101659.25;;;19.63;69.21
9257;BME280;4665;51.368;6.782;2022-07-23T09:45:51;101652.44;;;19.67;69.16
9257;BME280;4665;51.368;6.782;2022-07-23T09:48:17;101659.00;;;19.73;69.87
9257;BME280;4665;51.368;6.782;2022-07-23T09:50:44;101659.47;;;19.83;69.20
9257;BME280;4665;51.368;6.782;2022-07-23T09:53:11;101667.25;;;19.93;68.60
9257;BME280;4665;51.368;6.782;2022-07-23T09:55:49;101657.91;;;19.95;66.99
9257;BME280;4665;51.368;6.782;2022-07-23T09:58:15;101654.50;;;20.08;64.26
9257;BME280;4665;51.368;6.782;2022-07-23T10:00:42;101671.19;;;20.18;67.40
9257;BME280;4665;51.368;6.782;2022-07-23T10:03:10;101663.78;;;20.27;64.95
9257;BME280;4665;51.368;6.782;2022-07-23T10:05:37;101675.28;;;20.36;65.02
9257;BME280;4665;51.368;6.782;2022-07-23T10:08:03;101668.84;;;20.37;63.54
9257;BME280;4665;51.368;6.782;2022-07-23T10:10:30;101667.41;;;20.41;62.62
9257;BME280;4665;51.368;6.782;2022-07-23T10:12:56;101664.56;;;20.49;64.31
9257;BME280;4665;51.368;6.782;2022-07-23T10:15:34;101672.78;;;20.63;64.74
9257;BME280;4665;51.368;6.782;2022-07-23T10:18:01;101649.97;;;20.50;61.81
9257;BME280;4665;51.368;6.782;2022-07-23T10:20:26;101662.53;;;20.58;63.50
9257;BME280;4665;51.368;6.782;2022-07-23T10:23:14;101662.75;;;20.56;62.44
9257;BME280;4665;51.368;6.782;2022-07-23T10:26:09;101656.31;;;20.57;62.91
9257;BME280;4665;51.368;6.782;2022-07-23T10:31:25;101661.03;;;20.55;61.06
9257;BME280;4665;51.368;6.782;2022-07-23T10:36:52;101652.81;;;20.64;60.00
9257;BME280;4665;51.368;6.782;2022-07-23T10:39:28;101657.34;;;20.63;61.55
9257;BME280;4665;51.368;6.782;2022-07-23T10:42:12;101648.72;;;20.81;63.37
9257;BME280;4665;51.368;6.782;2022-07-23T10:44:44;101641.66;;;20.87;57.84
9257;BME280;4665;51.368;6.782;2022-07-23T10:47:11;101641.06;;;20.91;60.76
9257;BME280;4665;51.368;6.782;2022-07-23T10:50:29;101639.38;;;20.90;57.55
9257;BME280;4665;51.368;6.782;2022-07-23T10:57:57;101641.69;;;20.93;54.97
9257;BME280;4665;51.368;6.782;2022-07-23T11:00:24;101648.78;;;20.94;56.08
9257;BME280;4665;51.368;6.782;2022-07-23T11:02:52;101651.25;;;20.89;56.68
9257;BME280;4665;51.368;6.782;2022-07-23T11:05:21;101639.00;;;20.93;55.42
9257;BME280;4665;51.368;6.782;2022-07-23T11:10:36;101643.00;;;21.11;58.68
9257;BME280;4665;51.368;6.782;2022-07-23T11:13:28;101637.78;;;21.16;56.59
9257;BME280;4665;51.368;6.782;2022-07-23T11:24:17;101645.13;;;21.22;55.47
9257;BME280;4665;51.368;6.782;2022-07-23T11:26:53;101646.78;;;21.23;53.82
9257;BME280;4665;51.368;6.782;2022-07-23T11:31:56;101650.41;;;21.43;53.58
9257;BME280;4665;51.368;6.782;2022-07-23T11:36:58;101649.78;;;21.48;54.60
9257;BME280;4665;51.368;6.782;2022-07-23T11:39:26;101642.72;;;21.47;55.69
9257;BME280;4665;51.368;6.782;2022-07-23T11:41:53;101647.50;;;21.52;54.56
9257;BME280;4665;51.368;6.782;2022-07-23T11:44:46;101642.31;;;21.70;54.74
9257;BME280;4665;51.368;6.782;2022-07-23T11:47:11;101642.94;;;21.79;54.55
9257;BME280;4665;51.368;6.782;2022-07-23T11:49:37;101641.06;;;21.79;55.09
9257;BME280;4665;51.368;6.782;2022-07-23T11:52:15;101649.41;;;21.84;53.97
9257;BME280;4665;51.368;6.782;2022-07-23T11:55:10;101638.97;;;21.88;54.22
9257;BME280;4665;51.368;6.782;2022-07-23T11:57:39;101638.75;;;22.03;55.43
9257;BME280;4665;51.368;6.782;2022-07-23T12:00:13;101642.50;;;22.02;52.68
9257;BME280;4665;51.368;6.782;2022-07-23T12:02:41;101629.81;;;22.02;53.37
9257;BME280;4665;51.368;6.782;2022-07-23T12:05:11;101629.38;;;22.05;52.10
9257;BME280;4665;51.368;6.782;2022-07-23T12:07:38;101639.16;;;22.00;52.77
9257;BME280;4665;51.368;6.782;2022-07-23T12:10:15;101636.44;;;22.00;52.10
9257;BME280;4665;51.368;6.782;2022-07-23T12:15:13;101632.47;;;22.16;54.52
9257;BME280;4665;51.368;6.782;2022-07-23T12:17:40;101623.94;;;22.12;54.68
9257;BME280;4665;51.368;6.782;2022-07-23T12:20:08;101626.22;;;22.15;55.04
9257;BME280;4665;51.368;6.782;2022-07-23T12:22:46;101627.69;;;22.11;53.75
9257;BME280;4665;51.368;6.782;2022-07-23T12:25:17;101629.38;;;22.12;53.57
9257;BME280;4665;51.368;6.782;2022-07-23T12:27:44;101634.38;;;22.15;53.98
9257;BME280;4665;51.368;6.782;2022-07-23T12:32:47;101625.41;;;22.21;53.68
9257;BME280;4665;51.368;6.782;2022-07-23T12:35:15;101626.41;;;22.20;55.14
9257;BME280;4665;51.368;6.782;2022-07-23T12:37:42;101627.69;;;22.18;53.32
9257;BME280;4665;51.368;6.782;2022-07-23T12:42:52;101637.66;;;22.44;53.54
9257;BME280;4665;51.368;6.782;2022-07-23T12:45:18;101636.44;;;22.40;52.13
9257;BME280;4665;51.368;6.782;2022-07-23T12:48:04;101624.72;;;22.39;54.50
9257;BME280;4665;51.368;6.782;2022-07-23T12:53:13;101635.31;;;22.67;51.47
9257;BME280;4665;51.368;6.782;2022-07-23T12:55:40;101638.81;;;22.81;52.49
9257;BME280;4665;51.368;6.782;2022-07-23T12:58:12;101641.28;;;22.89;52.59
9257;BME280;4665;51.368;6.782;2022-07-23T13:05:56;101648.38;;;22.90;53.36
9257;BME280;4665;51.368;6.782;2022-07-23T13:08:22;101636.69;;;22.90;54.19
9257;BME280;4665;51.368;6.782;2022-07-23T13:10:49;101646.53;;;22.84;53.44
9257;BME280;4665;51.368;6.782;2022-07-23T13:13:20;101645.50;;;22.79;53.79
9257;BME280;4665;51.368;6.782;2022-07-23T13:15:46;101650.53;;;22.82;52.75
9257;BME280;4665;51.368;6.782;2022-07-23T13:18:11;101643.59;;;22.86;51.21
9257;BME280;4665;51.368;6.782;2022-07-23T13:20:37;101645.72;;;22.84;50.32
9257;BME280;4665;51.368;6.782;2022-07-23T13:23:05;101642.13;;;22.83;50.27
9257;BME280;4665;51.368;6.782;2022-07-23T13:25:31;101640.88;;;22.86;50.67
9257;BME280;4665;51.368;6.782;2022-07-23T13:27:56;101642.56;;;22.87;51.43
9257;BME280;4665;51.368;6.782;2022-07-23T13:30:22;101638.75;;;22.95;50.56
9257;BME280;4665;51.368;6.782;2022-07-23T13:32:48;101640.31;;;23.22;50.68
9257;BME280;4665;51.368;6.782;2022-07-23T13:35:14;101646.38;;;23.24;50.35
9257;BME280;4665;51.368;6.782;2022-07-23T13:37:39;101639.66;;;23.27;52.79
9257;BME280;4665;51.368;6.782;2022-07-23T13:40:05;101639.00;;;23.31;50.43
9257;BME280;4665;51.368;6.782;2022-07-23T13:42:31;101630.69;;;23.26;50.35
9257;BME280;4665;51.368;6.782;2022-07-23T13:44:57;101625.94;;;23.15;51.48
9257;BME280;4665;51.368;6.782;2022-07-23T13:47:22;101622.38;;;23.15;51.79
9257;BME280;4665;51.368;6.782;2022-07-23T13:49:47;101621.28;;;23.22;49.22
9257;BME280;4665;51.368;6.782;2022-07-23T13:52:13;101624.09;;;23.41;51.43
9257;BME280;4665;51.368;6.782;2022-07-23T13:54:38;101622.25;;;23.35;49.69
9257;BME280;4665;51.368;6.782;2022-07-23T13:57:04;101617.88;;;23.34;51.78